Time;durP1;ratioP1;P1;durP2;ratioP2;P2;SDS_P1;SDS_P2;PMS_P1;PMS_P2;Temp;Humidity;BMP_temperature;BMP_pressure;BME280_temperature;BME280_humidity;BME280_pressure;Samples;Min_cycle;Max_cycle;Signal;HPM_P1;HPM_P2
2022/08/03 00:01:02;;;;;;;0.70;0.20;;;;;;;24.10;43.62;101488.88;16138411;19;129818;-61
2022/08/03 00:06:24;;;;;;;2.92;0.30;;;;;;;24.10;44.09;101494.47;16144475;19;130268;-57
2022/08/03 00:11:45;;;;;;;0.40;0.30;;;;;;;24.09;44.01;101492.78;16145671;19;129335;-57
2022/08/03 00:17:10;;;;;;;0.73;0.30;;;;;;;24.08;44.19;101480.75;16144830;19;131796;-58
2022/08/03 00:22:34;;;;;;;0.68;0.20;;;;;;;24.10;44.25;101483.28;16141794;19;128954;-57
2022/08/03 00:27:55;;;;;;;0.95;0.20;;;;;;;24.08;43.80;101474.34;16145764;19;128916;-58
2022/08/03 00:33:18;;;;;;;0.32;0.15;;;;;;;24.07;43.75;101472.66;16144956;19;130037;-57
2022/08/03 00:38:42;;;;;;;0.50;0.20;;;;;;;24.08;43.85;101479.94;16143138;19;129045;-57
2022/08/03 00:44:04;;;;;;;1.05;0.20;;;;;;;24.06;43.85;101469.00;16144926;19;129032;-58
2022/08/03 00:49:26;;;;;;;0.20;0.20;;;;;;;24.06;43.95;101466.19;16143506;19;129721;-56
2022/08/03 00:54:49;;;;;;;1.20;0.22;;;;;;;24.04;43.93;101457.28;16139247;19;129406;-57
2022/08/03 01:00:13;;;;;;;0.65;0.30;;;;;;;24.05;44.26;101470.13;16140972;19;129705;-57
2022/08/03 01:06:08;;;;;;;0.55;0.20;;;;;;;24.05;43.73;101463.69;16143273;19;129482;-57
2022/08/03 01:11:48;;;;;;;0.25;0.15;;;;;;;24.05;43.85;101455.31;16143081;19;129161;-57
2022/08/03 01:17:30;;;;;;;0.65;0.30;;;;;;;24.04;44.09;101454.47;16143838;19;129637;-57
2022/08/03 01:23:29;;;;;;;0.95;0.32;;;;;;;24.03;44.00;101451.94;16138853;19;131005;-57
2022/08/03 01:29:09;;;;;;;0.68;0.30;;;;;;;23.99;43.85;101451.63;16140236;19;129159;-57
2022/08/03 01:34:38;;;;;;;1.17;0.20;;;;;;;24.01;43.83;101456.94;16141335;19;129434;-58
2022/08/03 01:40:02;;;;;;;1.42;0.30;;;;;;;24.00;43.84;101446.91;16136714;19;131034;-57
2022/08/03 01:45:25;;;;;;;0.17;0.17;;;;;;;24.00;43.84;101441.31;16141204;19;130613;-57
2022/08/03 01:50:48;;;;;;;0.40;0.20;;;;;;;23.99;43.89;101440.47;16137437;19;129539;-58
2022/08/03 01:56:12;;;;;;;0.20;0.10;;;;;;;24.00;43.84;101438.53;16139116;19;129098;-57
2022/08/03 02:01:36;;;;;;;0.22;0.17;;;;;;;24.00;43.77;101441.31;16134599;19;129918;-57
2022/08/03 02:07:22;;;;;;;0.77;0.30;;;;;;;23.99;43.86;101437.66;16133213;19;128872;-57
2022/08/03 02:12:46;;;;;;;0.80;0.28;;;;;;;23.97;43.82;101429.56;16139986;19;129295;-57
2022/08/03 02:18:13;;;;;;;0.60;0.30;;;;;;;23.97;43.85;101435.16;16133476;19;129982;-57
2022/08/03 02:23:36;;;;;;;0.95;0.30;;;;;;;23.97;43.82;101428.72;16133012;19;130180;-58
2022/08/03 02:29:02;;;;;;;0.25;0.10;;;;;;;23.96;43.79;101432.59;16136675;19;129664;-57
2022/08/03 02:34:28;;;;;;;0.77;0.30;;;;;;;23.95;43.93;101426.19;16136816;19;129106;-57
2022/08/03 02:39:53;;;;;;;0.50;0.20;;;;;;;23.96;43.67;101436.25;16137999;19;129825;-57
2022/08/03 02:45:17;;;;;;;0.20;0.20;;;;;;;23.96;44.04;101419.50;16135214;19;130176;-58
2022/08/03 02:50:40;;;;;;;0.45;0.35;;;;;;;23.94;43.83;101412.47;16134004;19;130205;-57
2022/08/03 02:56:04;;;;;;;0.68;0.20;;;;;;;23.93;43.80;101410.81;16132348;19;130678;-57
2022/08/03 03:01:27;;;;;;;0.32;0.20;;;;;;;23.92;43.89;101420.31;16131157;19;129303;-58
2022/08/03 03:06:50;;;;;;;0.50;0.30;;;;;;;23.92;43.92;101412.75;16134553;19;129469;-58
2022/08/03 03:12:13;;;;;;;0.65;0.30;;;;;;;23.92;43.92;101400.75;16134770;19;130443;-57
2022/08/03 03:17:36;;;;;;;1.67;0.20;;;;;;;23.90;44.07;101406.59;16142206;19;129314;-57
2022/08/03 03:22:59;;;;;;;0.57;0.20;;;;;;;23.90;44.00;101406.59;16145719;19;128984;-57
2022/08/03 03:28:23;;;;;;;0.85;0.25;;;;;;;23.90;43.87;101409.38;16148492;19;129532;-58
2022/08/03 03:33:45;;;;;;;0.20;0.20;;;;;;;23.89;43.85;101404.91;16145371;19;129427;-58
2022/08/03 03:39:07;;;;;;;0.60;0.10;;;;;;;23.89;43.83;101407.69;16150182;19;134288;-57
2022/08/03 03:44:36;;;;;;;0.77;0.20;;;;;;;23.88;43.90;101403.22;16144389;19;129983;-57
2022/08/03 03:49:58;;;;;;;0.43;0.20;;;;;;;23.87;43.86;101404.38;16146613;19;129607;-56
2022/08/03 03:55:20;;;;;;;0.28;0.20;;;;;;;23.86;43.82;101402.69;16139720;19;129262;-57
2022/08/03 04:00:43;;;;;;;0.32;0.17;;;;;;;23.86;43.79;101408.25;16137302;19;129964;-56
2022/08/03 04:11:51;;;;;;;0.35;0.20;;;;;;;23.84;43.94;101402.09;16146318;19;129271;-58
2022/08/03 04:17:15;;;;;;;0.80;0.22;;;;;;;23.83;43.73;101406.00;16146729;19;129585;-58
2022/08/03 04:22:39;;;;;;;0.35;0.20;;;;;;;23.84;43.94;101404.91;16144087;19;129427;-56
2022/08/03 04:28:01;;;;;;;0.60;0.30;;;;;;;23.83;43.84;101414.38;16145950;19;128890;-58
2022/08/03 04:33:44;;;;;;;1.27;0.30;;;;;;;23.82;43.54;101416.31;16143540;19;130333;-57
2022/08/03 04:39:22;;;;;;;0.65;0.30;;;;;;;23.85;43.77;101414.09;16143225;19;131703;-57
2022/08/03 04:44:45;;;;;;;0.90;0.20;;;;;;;23.81;43.85;101419.41;16144888;19;128947;-58
2022/08/03 04:50:08;;;;;;;0.52;0.20;;;;;;;23.82;43.93;101424.69;16143819;19;129511;-58
2022/08/03 04:55:35;;;;;;;0.20;0.17;;;;;;;23.82;43.78;101427.50;16146593;19;129059;-57
2022/08/03 05:00:57;;;;;;;0.65;0.15;;;;;;;23.80;44.00;101429.75;16140236;19;129629;-57
2022/08/03 05:06:18;;;;;;;0.57;0.10;;;;;;;23.80;44.21;101438.13;16143719;19;130018;-58
2022/08/03 05:11:45;;;;;;;1.02;0.32;;;;;;;23.80;43.83;101446.50;16141654;19;129294;-56
2022/08/03 05:17:08;;;;;;;5.05;0.60;;;;;;;23.81;43.56;101444.53;16142571;19;129528;-58
2022/08/03 05:22:29;;;;;;;2.45;0.80;;;;;;;23.75;43.89;101451.22;16139658;19;129397;-58
2022/08/03 05:27:51;;;;;;;7.03;1.15;;;;;;;23.70;44.12;101452.00;16145037;19;130114;-58
2022/08/03 05:33:13;;;;;;;9.50;1.33;;;;;;;23.66;44.21;101448.91;16136201;19;129120;-58
2022/08/03 05:38:35;;;;;;;5.40;1.45;;;;;;;23.66;44.14;101448.91;16133840;19;129296;-58
2022/08/03 05:43:57;;;;;;;5.75;1.42;;;;;;;23.68;44.41;101453.38;16136087;19;129960;-58
2022/08/03 05:49:19;;;;;;;6.85;1.25;;;;;;;23.66;43.97;101450.88;16140400;19;128846;-58
2022/08/03 05:54:41;;;;;;;12.30;1.63;;;;;;;23.66;44.68;101457.28;16134710;19;128923;-58
2022/08/03 06:00:18;;;;;;;4.50;1.25;;;;;;;23.68;44.07;101456.19;16138762;19;129430;-59
2022/08/03 06:05:42;;;;;;;8.73;1.40;;;;;;;23.66;44.57;101457.28;16138936;19;128998;-59
2022/08/03 06:11:20;;;;;;;6.00;1.40;;;;;;;23.68;44.43;101458.97;16139783;19;128973;-59
2022/08/03 06:16:42;;;;;;;8.35;1.52;;;;;;;23.68;44.38;101461.78;16136407;19;129997;-59
2022/08/03 06:22:04;;;;;;;6.30;1.35;;;;;;;23.68;44.65;101464.56;16134096;19;129382;-59
2022/08/03 06:27:26;;;;;;;10.38;1.40;;;;;;;23.68;44.64;101458.97;16138669;19;128943;-59
2022/08/03 06:32:57;;;;;;;5.32;1.10;;;;;;;23.68;44.55;101464.56;16135702;19;129331;-59
2022/08/03 06:38:19;;;;;;;5.60;1.27;;;;;;;23.72;44.76;101466.53;16137986;19;129335;-59
2022/08/03 06:43:41;;;;;;;5.32;1.08;;;;;;;23.75;44.81;101467.97;16134316;19;130265;-59
2022/08/03 06:49:23;;;;;;;3.88;1.10;;;;;;;23.78;44.77;101470.22;16139884;19;129220;-59
2022/08/03 06:54:45;;;;;;;6.63;1.05;;;;;;;23.79;44.56;101471.91;16163529;19;129178;-59
2022/08/03 07:00:08;;;;;;;3.92;1.10;;;;;;;23.80;44.62;101468.84;16168532;19;131632;-59
2022/08/03 07:05:34;;;;;;;3.08;0.93;;;;;;;23.82;44.75;101477.78;16168543;19;130766;-59
2022/08/03 07:10:55;;;;;;;4.43;1.10;;;;;;;23.82;44.77;101483.38;16169074;19;129331;-59
2022/08/03 07:16:17;;;;;;;4.95;1.15;;;;;;;23.84;44.86;101485.91;16167331;19;130883;-59
2022/08/03 07:21:39;;;;;;;5.07;1.15;;;;;;;23.84;45.07;101488.72;16165785;19;129835;-59
2022/08/03 07:27:01;;;;;;;2.00;0.80;;;;;;;23.86;45.10;101492.09;16166137;19;130923;-59
2022/08/03 07:32:23;;;;;;;4.00;0.80;;;;;;;23.87;44.65;101492.91;16164047;19;130005;-59
2022/08/03 07:37:45;;;;;;;8.18;1.10;;;;;;;23.90;44.91;101493.22;16165248;19;130319;-59
2022/08/03 07:43:16;;;;;;;4.50;1.35;;;;;;;23.92;45.22;101493.78;16164128;19;129492;-59
2022/08/03 07:48:38;;;;;;;5.05;0.90;;;;;;;23.93;44.92;101489.88;16163532;19;129321;-60
2022/08/03 07:54:00;;;;;;;9.15;0.90;;;;;;;23.95;44.98;101498.84;16159653;19;128903;-60
2022/08/03 07:59:21;;;;;;;4.07;0.85;;;;;;;23.96;44.96;101492.16;16162420;19;129420;-60
2022/08/03 08:04:43;;;;;;;3.00;0.70;;;;;;;23.97;45.20;101491.03;16144414;19;129350;-60
2022/08/03 08:10:06;;;;;;;4.32;0.90;;;;;;;24.00;45.07;101486.03;16149728;19;129589;-60
2022/08/03 08:15:29;;;;;;;5.53;0.88;;;;;;;24.01;45.50;101482.97;16147542;19;129502;-60
2022/08/03 08:20:51;;;;;;;3.15;0.90;;;;;;;24.03;45.08;101477.09;16145066;19;130070;-59
2022/08/03 08:26:12;;;;;;;6.40;0.90;;;;;;;24.02;45.55;101479.06;16140330;19;129450;-59
2022/08/03 08:31:34;;;;;;;3.28;0.85;;;;;;;24.04;45.13;101471.25;16143557;19;130262;-59
2022/08/03 08:36:57;;;;;;;5.35;0.80;;;;;;;24.07;44.97;101467.06;16145061;19;129502;-59
2022/08/03 08:42:19;;;;;;;7.60;0.77;;;;;;;24.08;45.32;101469.56;16143436;19;130337;-59
2022/08/03 08:47:45;;;;;;;4.47;0.90;;;;;;;24.09;45.32;101465.66;16140193;19;129023;-60
2022/08/03 08:53:12;;;;;;;4.25;0.90;;;;;;;24.14;45.06;101455.63;16168420;19;128826;-61
2022/08/03 08:58:43;;;;;;;6.38;1.20;;;;;;;24.15;45.10;101463.75;16197635;19;128890;-59
2022/08/03 09:04:08;;;;;;;8.43;1.08;;;;;;;24.16;45.13;101454.25;16188991;19;130585;-60
2022/08/03 09:09:30;;;;;;;7.20;1.30;;;;;;;24.17;45.14;101450.34;16194100;19;128331;-60
2022/08/03 09:15:17;;;;;;;12.23;1.15;;;;;;;24.18;45.03;101460.41;16192149;19;130716;-59
2022/08/03 09:20:39;;;;;;;9.18;1.20;;;;;;;24.18;44.96;101465.19;16175951;19;129045;-60
2022/08/03 09:26:01;;;;;;;9.27;1.52;;;;;;;24.17;45.18;101461.53;16179916;19;129537;-59
2022/08/03 09:31:34;;;;;;;7.03;1.73;;;;;;;24.20;45.27;101458.19;16147182;19;129495;-60
2022/08/03 09:36:57;;;;;;;10.50;1.77;;;;;;;24.23;45.43;101459.59;16138713;19;130542;-60
2022/08/03 09:42:21;;;;;;;8.85;1.98;;;;;;;24.26;45.18;101465.50;16137581;19;129423;-60
2022/08/03 09:47:44;;;;;;;9.75;1.90;;;;;;;24.30;44.93;101459.38;16138693;19;129258;-60
2022/08/03 09:53:06;;;;;;;7.70;1.85;;;;;;;24.31;45.51;101458.25;16134514;19;129854;-60
2022/08/03 09:58:30;;;;;;;9.88;1.73;;;;;;;24.30;45.26;101459.38;16138423;19;128827;-59
2022/08/03 10:03:58;;;;;;;9.82;2.40;;;;;;;24.29;45.36;101446.50;16132832;19;129616;-60
2022/08/03 10:09:25;;;;;;;7.75;1.70;;;;;;;24.27;45.49;101453.22;16137935;19;129306;-60
2022/08/03 10:14:47;;;;;;;5.63;1.70;;;;;;;24.26;45.73;101451.53;16137516;19;129849;-60
2022/08/03 10:20:09;;;;;;;4.32;1.48;;;;;;;24.27;45.15;101447.63;16132027;19;130781;-59
2022/08/03 10:25:32;;;;;;;9.75;1.55;;;;;;;24.29;45.56;101446.50;16130009;19;130270;-59
2022/08/03 10:30:55;;;;;;;8.65;1.58;;;;;;;24.30;45.50;101445.41;16138316;19;129180;-58
2022/08/03 10:36:17;;;;;;;10.93;1.50;;;;;;;24.30;45.48;101439.81;16137870;19;129494;-58
2022/08/03 10:41:41;;;;;;;12.68;1.52;;;;;;;24.33;45.75;101430.88;16135407;19;129496;-60
2022/08/03 10:47:03;;;;;;;6.68;1.17;;;;;;;24.33;45.68;101422.50;16136194;19;129439;-60
2022/08/03 10:52:25;;;;;;;9.82;1.30;;;;;;;24.34;45.60;101425.00;16133034;19;129230;-60
2022/08/03 10:58:02;;;;;;;;;;;;;;;24.33;45.75;101423.31;16135935;19;129239;-60
2022/08/03 11:03:29;;;;;;;16.98;1.60;;;;;;;24.33;45.60;101414.09;16127006;19;129966;-60
2022/08/03 11:09:09;;;;;;;10.20;1.70;;;;;;;24.34;45.71;101410.19;16134558;19;129544;-60
2022/08/03 11:14:45;;;;;;;12.02;1.50;;;;;;;24.35;45.79;101403.50;16131302;19;129433;-60
2022/08/03 11:20:07;;;;;;;14.73;1.38;;;;;;;24.35;45.73;101400.69;16129061;19;128964;-60
2022/08/03 11:26:08;;;;;;;5.82;1.20;;;;;;;24.36;45.71;101391.19;16130799;19;129371;-60
2022/08/03 11:31:30;;;;;;;6.40;1.38;;;;;;;24.34;45.41;101391.44;16134932;19;129868;-61
2022/08/03 11:37:18;;;;;;;6.95;1.25;;;;;;;24.36;45.58;101396.78;16137862;19;129826;-60
2022/08/03 11:42:43;;;;;;;10.50;1.30;;;;;;;24.37;45.56;101390.06;16147668;19;129433;-60
2022/08/03 11:48:15;;;;;;;13.73;1.73;;;;;;;24.40;45.59;101386.72;16149078;19;128916;-61
2022/08/03 11:53:37;;;;;;;12.73;1.60;;;;;;;24.39;45.51;101387.81;16144492;19;130254;-60
2022/08/03 11:59:03;;;;;;;;;;;;;;;24.38;45.52;101395.38;16144364;19;129930;-61
2022/08/03 12:05:01;;;;;;;7.80;1.10;;;;;;;24.43;45.73;101394.56;16144388;19;129281;-61
2022/08/03 12:10:24;;;;;;;8.55;1.10;;;;;;;24.41;45.36;101393.97;16145433;19;129440;-61
2022/08/03 12:15:54;;;;;;;6.70;1.20;;;;;;;24.43;45.45;101383.38;16147534;19;129864;-60
2022/08/03 12:21:17;;;;;;;10.82;1.63;;;;;;;24.43;45.40;101386.16;16147973;19;129351;-60
2022/08/03 12:26:48;;;;;;;7.03;1.13;;;;;;;24.46;45.17;101379.16;16146958;19;128996;-60
2022/08/03 12:32:20;;;;;;;10.93;1.20;;;;;;;24.45;45.33;101369.94;16145099;19;129143;-59
2022/08/03 12:37:47;;;;;;;7.63;0.90;;;;;;;24.48;45.32;101388.13;16142137;19;129659;-60
2022/08/03 12:43:13;;;;;;;8.20;1.17;;;;;;;24.47;45.64;101376.13;16144130;19;128852;-60
2022/08/03 12:48:35;;;;;;;4.53;1.17;;;;;;;24.48;45.47;101372.22;16146194;19;129314;-60
2022/08/03 12:53:58;;;;;;;3.90;0.90;;;;;;;24.48;45.51;101376.94;16139536;19;129589;-61
2022/08/03 12:59:24;;;;;;;6.47;0.90;;;;;;;24.49;45.19;101379.47;16142799;19;130064;-60
2022/08/03 13:04:55;;;;;;;11.63;1.35;;;;;;;24.50;45.18;101374.72;16135173;19;129434;-61
2022/08/03 13:10:31;;;;;;;4.90;0.90;;;;;;;24.52;45.30;101364.09;16144747;19;129966;-61
2022/08/03 13:15:53;;;;;;;6.93;1.10;;;;;;;24.50;45.26;101367.16;16141895;19;128905;-60
2022/08/03 13:21:15;;;;;;;5.18;0.60;;;;;;;24.51;45.20;101363.25;16143826;19;128797;-61
2022/08/03 13:26:37;;;;;;;4.45;1.05;;;;;;;24.50;45.02;101353.16;16137218;19;130683;-61
2022/08/03 13:32:00;;;;;;;2.85;0.52;;;;;;;24.50;45.26;101355.97;16140726;19;129390;-60
2022/08/03 13:37:22;;;;;;;5.57;0.70;;;;;;;24.49;45.05;101345.91;16141508;19;130035;-60
2022/08/03 13:42:44;;;;;;;2.50;0.68;;;;;;;24.52;45.07;101352.91;16140761;19;129987;-60
2022/08/03 13:48:06;;;;;;;2.30;0.80;;;;;;;24.55;45.07;101339.22;16138909;19;128913;-60
2022/08/03 13:53:27;;;;;;;5.30;0.90;;;;;;;24.59;45.33;101342.28;16137635;19;129465;-60
2022/08/03 13:58:49;;;;;;;7.97;1.00;;;;;;;24.61;45.26;101340.06;16131923;19;129616;-61
2022/08/03 14:04:11;;;;;;;14.02;1.60;;;;;;;24.66;45.48;101334.47;16134601;19;129205;-58
2022/08/03 14:09:42;;;;;;;20.25;1.40;;;;;;;24.67;45.33;101329.72;16141910;19;129534;-59
2022/08/03 14:15:08;;;;;;;9.63;1.17;;;;;;;24.68;45.52;101320.19;16139761;19;129300;-59
2022/08/03 14:20:30;;;;;;;12.43;1.23;;;;;;;24.70;45.37;101316.00;16138937;19;129034;-59
2022/08/03 14:26:08;;;;;;;20.45;1.55;;;;;;;24.73;45.16;101307.06;16129807;19;129477;-59
2022/08/03 14:31:30;;;;;;;9.32;0.90;;;;;;;24.71;45.36;101302.88;16134940;19;129573;-61
2022/08/03 14:37:11;;;;;;;12.30;1.48;;;;;;;24.71;45.44;101308.47;16131739;19;129807;-62
2022/08/03 14:42:33;;;;;;;12.40;1.27;;;;;;;24.73;45.71;101300.63;16128981;19;130390;-60
2022/08/03 14:47:55;;;;;;;17.45;1.67;;;;;;;24.75;45.50;101281.56;16136331;19;129317;-59
2022/08/03 14:53:36;;;;;;;12.88;1.25;;;;;;;24.77;45.55;101282.16;16133553;19;132022;-63
2022/08/03 14:58:58;;;;;;;11.93;1.60;;;;;;;24.79;45.63;101277.13;16135267;19;128940;-62
2022/08/03 15:04:20;;;;;;;13.38;1.10;;;;;;;24.81;45.64;101277.69;16131551;19;129507;-60
2022/08/03 15:09:42;;;;;;;9.85;0.70;;;;;;;24.83;45.63;101266.19;16135737;19;129577;-59
2022/08/03 15:15:04;;;;;;;6.72;0.85;;;;;;;24.85;45.68;101263.97;16147508;19;129583;-61
2022/08/03 15:20:26;;;;;;;7.53;0.70;;;;;;;24.86;45.45;101265.63;16148243;19;130061;-62
2022/08/03 15:26:04;;;;;;;7.75;1.42;;;;;;;24.87;45.76;101256.94;16145125;19;130274;-60
2022/08/03 15:31:46;;;;;;;9.45;1.20;;;;;;;24.90;45.43;101257.53;16150362;19;130524;-60
2022/08/03 15:37:08;;;;;;;11.73;1.42;;;;;;;24.94;45.36;101244.69;16150111;19;129373;-60
2022/08/03 15:42:37;;;;;;;11.95;0.95;;;;;;;24.97;45.69;101236.53;16145618;19;129572;-61
2022/08/03 15:47:58;;;;;;;9.65;1.25;;;;;;;24.98;45.77;101234.59;16149562;19;129210;-60
2022/08/03 15:53:20;;;;;;;12.95;1.63;;;;;;;25.01;45.60;101228.41;16148054;19;129536;-61
2022/08/03 15:58:42;;;;;;;15.60;1.58;;;;;;;25.02;45.36;101230.09;16148255;19;128880;-60
2022/08/03 16:04:24;;;;;;;10.68;1.23;;;;;;;25.00;45.40;101227.59;16146975;19;129383;-61
2022/08/03 16:09:45;;;;;;;9.57;1.20;;;;;;;24.96;45.17;101214.44;16147090;19;129403;-60
2022/08/03 16:15:08;;;;;;;23.83;2.20;;;;;;;24.94;45.39;101208.28;16146357;19;129029;-60
2022/08/03 16:20:30;;;;;;;11.35;1.30;;;;;;;24.92;45.52;101216.13;16147221;19;129773;-61
2022/08/03 16:25:55;;;;;;;7.57;1.00;;;;;;;24.90;45.28;101216.41;16142316;19;128925;-60
2022/08/03 16:31:17;;;;;;;13.23;1.25;;;;;;;24.90;45.40;101216.41;16146332;19;130054;-61
2022/08/03 16:36:39;;;;;;;16.98;1.55;;;;;;;24.90;45.50;101213.63;16145590;19;128974;-61
2022/08/03 16:42:01;;;;;;;16.00;1.00;;;;;;;24.88;45.40;101208.28;16146341;19;129393;-60
2022/08/03 16:47:22;;;;;;;12.98;1.40;;;;;;;24.87;45.44;101203.78;16138365;19;129629;-61
2022/08/03 16:52:44;;;;;;;6.78;1.15;;;;;;;24.87;45.48;101205.75;16143686;19;132190;-61
2022/08/03 16:58:08;;;;;;;9.80;0.80;;;;;;;24.87;45.29;101195.38;16143892;19;129188;-60
2022/08/03 17:03:35;;;;;;;10.90;0.90;;;;;;;24.86;45.41;101199.31;16144169;19;128995;-61
2022/08/03 17:09:19;;;;;;;5.43;1.25;;;;;;;24.86;45.25;101202.09;16143366;19;129841;-65
2022/08/03 17:14:42;;;;;;;14.57;1.13;;;;;;;24.86;45.11;101199.31;16145363;19;129196;-66
2022/08/03 17:20:07;;;;;;;7.88;0.93;;;;;;;24.88;45.16;101197.09;16143781;19;129963;-64
2022/08/03 17:25:31;;;;;;;13.95;1.10;;;;;;;24.90;45.28;101193.19;16142435;19;130659;-66
2022/08/03 17:31:19;;;;;;;13.38;1.10;;;;;;;24.90;45.36;101193.19;16143558;19;128983;-65
2022/08/03 17:36:53;;;;;;;22.10;2.55;;;;;;;24.87;45.37;101192.59;16140883;19;129801;-65
2022/08/03 17:42:35;;;;;;;18.77;1.65;;;;;;;24.90;45.22;101193.19;16140145;19;130629;-60
2022/08/03 17:47:57;;;;;;;20.85;1.83;;;;;;;24.88;45.46;101197.09;16137338;19;129317;-60
2022/08/03 17:53:26;;;;;;;14.98;1.20;;;;;;;24.88;45.16;101202.69;16138307;19;129684;-61
2022/08/03 17:59:08;;;;;;;12.70;1.08;;;;;;;24.90;45.48;101204.38;16140841;19;129384;-60
2022/08/03 18:04:36;;;;;;;11.48;1.35;;;;;;;24.85;45.63;101200.44;16138418;19;129609;-60
2022/08/03 18:10:02;;;;;;;13.10;0.95;;;;;;;24.84;45.45;101197.91;16142625;19;129671;-60
2022/08/03 18:15:38;;;;;;;9.77;0.93;;;;;;;24.85;45.56;101192.06;16141836;19;130679;-60
2022/08/03 18:21:04;;;;;;;11.10;0.98;;;;;;;24.86;45.73;101192.88;16141725;19;130199;-60
2022/08/03 18:26:30;;;;;;;4.63;0.80;;;;;;;24.86;45.33;101198.47;16136466;19;129690;-60
2022/08/03 18:31:58;;;;;;;16.58;1.27;;;;;;;24.86;45.50;101192.88;16138881;19;129427;-60
2022/08/03 18:37:25;;;;;;;22.38;1.40;;;;;;;24.87;45.34;101194.56;16140182;19;129644;-60
2022/08/03 18:42:47;;;;;;;13.80;1.48;;;;;;;24.88;45.13;101202.69;16136852;19;129636;-60
2022/08/03 18:48:27;;;;;;;13.40;1.75;;;;;;;24.91;45.40;101206.06;16139670;19;129377;-60
2022/08/03 18:53:54;;;;;;;8.80;1.30;;;;;;;24.91;45.62;101200.47;16134170;19;130324;-60
2022/08/03 18:59:41;;;;;;;8.82;1.17;;;;;;;24.92;45.26;101203.00;16138880;19;130409;-60
2022/08/03 19:05:08;;;;;;;10.88;1.20;;;;;;;24.90;45.59;101201.56;16136431;19;129349;-61
2022/08/03 19:10:35;;;;;;;8.83;1.73;;;;;;;24.87;45.58;101206.59;16139276;19;130038;-60
2022/08/03 19:16:03;;;;;;;4.80;0.85;;;;;;;24.88;45.48;101204.63;16138335;19;128959;-61
2022/08/03 19:21:31;;;;;;;9.85;1.10;;;;;;;24.87;45.80;101206.59;16136450;19;129333;-61
2022/08/03 19:26:54;;;;;;;7.37;1.00;;;;;;;24.86;45.29;101207.69;16133848;19;128974;-61
2022/08/03 19:32:19;;;;;;;8.98;0.82;;;;;;;24.86;45.45;101210.50;16137840;19;129523;-60
2022/08/03 19:37:43;;;;;;;10.75;0.90;;;;;;;24.84;45.55;101207.16;16136962;19;129610;-60
2022/08/03 19:43:16;;;;;;;6.57;0.80;;;;;;;24.87;45.38;101228.13;16134166;19;129100;-66
2022/08/03 19:48:42;;;;;;;8.02;0.75;;;;;;;24.85;45.28;101228.44;16132647;19;129219;-61
2022/08/03 19:54:08;;;;;;;4.80;0.90;;;;;;;24.84;45.26;101235.16;16129594;19;128819;-61
2022/08/03 19:59:36;;;;;;;3.72;0.80;;;;;;;24.85;45.26;101231.22;16143207;19;129917;-61
2022/08/03 20:05:11;;;;;;;11.05;1.02;;;;;;;24.84;45.44;101232.34;16146436;19;128855;-60
2022/08/03 20:10:36;;;;;;;;;;;;;;;24.81;45.57;101230.09;16149961;19;130090;-61
2022/08/03 20:15:57;;;;;;;3.13;0.80;;;;;;;24.84;45.25;101237.09;16146109;19;129713;-61
2022/08/03 20:21:23;;;;;;;2.85;0.55;;;;;;;24.83;45.51;101238.22;16143783;19;129211;-60
2022/08/03 20:26:50;;;;;;;4.28;0.80;;;;;;;24.83;45.52;101225.06;16134626;19;129410;-60
2022/08/03 20:32:15;;;;;;;2.47;0.75;;;;;;;24.82;45.78;101231.78;16143106;19;129294;-60
2022/08/03 20:37:37;;;;;;;3.83;0.70;;;;;;;24.82;45.42;101231.78;16142426;19;130092;-60
2022/08/03 20:43:03;;;;;;;2.17;0.67;;;;;;;24.80;45.67;101233.19;16140419;19;129237;-60
2022/08/03 20:48:25;;;;;;;2.05;0.63;;;;;;;24.81;45.42;101232.91;16134928;19;131182;-61
2022/08/03 20:53:47;;;;;;;4.13;0.80;;;;;;;24.81;45.44;101241.31;16131559;19;129591;-60
2022/08/03 20:59:22;;;;;;;1.75;0.60;;;;;;;24.81;45.48;101238.50;16135049;19;129601;-60
2022/08/03 21:04:44;;;;;;;6.18;0.75;;;;;;;24.82;45.66;101242.13;16129138;19;130582;-60
2022/08/03 21:10:13;;;;;;;2.40;0.77;;;;;;;24.82;45.59;101236.53;16131163;19;134329;-61
2022/08/03 21:15:38;;;;;;;1.25;0.50;;;;;;;24.81;45.66;101224.50;16136549;19;129599;-61
2022/08/03 21:21:22;;;;;;;4.32;0.50;;;;;;;24.81;45.78;101229.25;16131772;19;130780;-60
2022/08/03 21:26:46;;;;;;;2.53;0.60;;;;;;;24.80;45.86;101220.03;16128704;19;134404;-60
2022/08/03 21:32:09;;;;;;;3.70;0.70;;;;;;;24.78;45.67;101219.47;16134007;19;130051;-61
2022/08/03 21:37:40;;;;;;;1.98;0.63;;;;;;;24.79;45.58;101220.31;16132179;19;129732;-60
2022/08/03 21:43:03;;;;;;;1.52;0.50;;;;;;;24.79;45.27;101214.72;16126776;19;129361;-60
2022/08/03 21:48:29;;;;;;;1.80;0.55;;;;;;;24.79;45.70;101225.94;16121333;19;129805;-61
2022/08/03 21:53:52;;;;;;;5.05;0.50;;;;;;;24.77;45.66;101222.56;16130666;19;129655;-59
2022/08/03 21:59:25;;;;;;;2.55;0.90;;;;;;;24.77;45.68;101222.56;16136449;19;129263;-58
2022/08/03 22:04:47;;;;;;;2.72;0.65;;;;;;;24.77;45.74;101215.00;16134726;19;129412;-59
2022/08/03 22:10:16;;;;;;;4.43;0.52;;;;;;;24.78;45.67;101211.06;16136237;19;129650;-59
2022/08/03 22:15:38;;;;;;;3.83;0.63;;;;;;;24.78;45.32;101201.84;16134934;19;129521;-59
2022/08/03 22:21:00;;;;;;;1.77;0.50;;;;;;;24.77;45.50;101200.19;16134072;19;130016;-68
2022/08/03 22:26:26;;;;;;;1.70;0.40;;;;;;;24.76;45.60;101193.72;16134451;19;130439;-66
2022/08/03 22:31:56;;;;;;;2.70;0.80;;;;;;;24.77;45.64;101191.78;16137081;19;129071;-66
2022/08/03 22:37:27;;;;;;;4.18;0.60;;;;;;;24.76;45.49;101196.53;16131096;19;129594;-67
2022/08/03 22:42:52;;;;;;;2.00;0.57;;;;;;;24.75;45.34;101191.22;16135152;19;128995;-69
2022/08/03 22:48:16;;;;;;;2.30;1.02;;;;;;;24.75;45.61;101194.03;16130953;19;129222;-68
2022/08/03 22:53:39;;;;;;;0.95;0.40;;;;;;;24.73;45.61;101183.94;16131933;19;129467;-70
2022/08/03 22:59:02;;;;;;;1.45;0.60;;;;;;;24.73;45.56;101183.13;16132853;19;129975;-65
2022/08/03 23:04:51;;;;;;;1.45;0.40;;;;;;;24.74;45.22;101187.56;16134507;19;129791;-69
2022/08/03 23:10:14;;;;;;;1.77;0.30;;;;;;;24.73;45.32;101185.91;16134277;19;129491;-67
2022/08/03 23:15:36;;;;;;;1.98;0.50;;;;;;;24.73;45.53;101177.53;16132559;19;129449;-62
2022/08/03 23:21:01;;;;;;;1.73;0.50;;;;;;;24.72;45.26;101179.47;16133875;19;130280;-67
2022/08/03 23:26:33;;;;;;;1.55;0.52;;;;;;;24.72;45.40;101175.84;16132609;19;130939;-66
2022/08/03 23:31:55;;;;;;;0.82;0.38;;;;;;;24.71;45.16;101168.56;16133707;19;129307;-63
2022/08/03 23:37:18;;;;;;;2.80;0.50;;;;;;;24.72;45.71;101170.25;16147140;19;129982;-64
2022/08/03 23:42:43;;;;;;;2.17;0.30;;;;;;;24.71;45.20;101174.16;16146191;19;129992;-67
2022/08/03 23:48:04;;;;;;;1.42;0.40;;;;;;;24.71;45.36;101174.16;16142845;19;128888;-65
2022/08/03 23:53:40;;;;;;;1.30;0.38;;;;;;;24.71;45.43;101160.19;16144977;19;129554;-62
2022/08/03 23:59:10;;;;;;;2.25;0.47;;;;;;;24.70;45.33;101155.72;16146263;19;129482;-59
